Home > Products > Valid Products > TAF

000
FTUS43 KGLD 311120
TAFMCK
TAF
KMCK 311120Z 3112/0112 14004KT 5SM BR VCSH OVC005
     FM312000 VRB05KT 3SM BR VCSH OVC011
     FM010100 01012KT 4SM -RA OVC008
     FM010900 35020G30KT P6SM OVC011=



000
FTUS43 KGLD 311120
TAFGLD
TAF
KGLD 311120Z 3112/0112 18010KT 5SM BR OVC003
     FM311400 VRB06KT P6SM OVC004
      TEMPO 3117/3119 OVC012
     FM311900 34006KT P6SM FEW007 OVC012
     FM010200 35009KT 6SM BR VCSH OVC008
     FM010800 35018G27KT P6SM OVC005=



000
FTUS43 KGLD 310529
TAFGLD
TAF
KGLD 310529Z 3106/0106 18013KT 6SM BR VCSH OVC005
     FM311100 VRB05KT 2SM BR OVC004
     FM311600 27006KT 6SM -RA SCT010 OVC015
     FM010300 01009KT 4SM -SN OVC012=



000
FTUS43 KGLD 310529
TAFMCK
TAF
KMCK 310529Z 3106/0106 17008KT P6SM VCSH OVC008
     FM310900 VRB05KT 5SM BR VCSH OVC006
     FM311200 VRB05KT 1SM BR OVC006
     FM311600 10005KT 3SM -RA BR OVC008
     FM312100 05008KT 5SM -RA BR OVC010
     FM010000 03009KT 4SM -SN OVC008=



000
FTUS43 KGLD 310529
TAFMCK
TAF
KMCK 310529Z 3106/0106 17008KT P6SM VCSH OVC008
     FM310900 VRB05KT 5SM BR VCSH OVC006
     FM311200 VRB05KT 1SM BR OVC006
     FM311600 10005KT 3SM -RA BR OVC008
     FM312100 05008KT 5SM -RA BR OVC010
     FM010000 03009KT 4SM -SN OVC008=



000
FTUS43 KGLD 310401 AAB
TAFGLD
TAF AMD
KGLD 310401Z 3104/3124 18012KT 6SM BR VCSH OVC004
     FM311100 VRB05KT 2SM BR OVC004
     FM311600 27006KT 6SM -RA SCT010 OVC025=



000
FTUS43 KGLD 310342 AAA
TAFMCK
TAF AMD
KMCK 310342Z 3104/3124 17015KT P6SM VCSH OVC015
     FM310900 VRB05KT 5SM BR VCSH OVC009
     FM311200 VRB05KT 1SM BR OVC006
     FM311600 10005KT 3SM -RA BR BKN015 OVC020
     FM312100 05008KT 5SM -RA BR OVC010=



000
FTUS43 KGLD 310342 AAA
TAFMCK
TAF AMD
KMCK 310342Z 3104/3124 17015KT P6SM VCSH OVC015
     FM310900 VRB05KT 5SM BR VCSH OVC009
     FM311200 VRB05KT 1SM BR OVC006
     FM311600 10005KT 3SM -RA BR BKN015 OVC020
     FM312100 05008KT 5SM -RA BR OVC010=



000
FTUS43 KGLD 310135 AAC
TAFGLD
TAF AMD
KGLD 310135Z 3102/3124 18017KT P6SM OVC008
     FM310400 17012KT 6SM BR VCSH OVC008
     FM311100 VRB05KT 2SM BR OVC007
     FM311600 27006KT 6SM -RA SCT010 OVC025=



000
FTUS43 KGLD 310051 AAB
TAFGLD
TAF AMD
KGLD 310051Z 3101/3124 17017KT P6SM VCSH OVC014
     FM310400 17012KT 6SM BR VCSH OVC012
     FM311100 VRB05KT 2SM BR OVC011
     FM311600 27006KT 6SM -RA SCT015 OVC025=



000
FTUS43 KGLD 302355 AAA
TAFGLD
TAF AMD
KGLD 302355Z 3100/3124 19014G25KT P6SM VCSH OVC025
     FM310400 17012KT 6SM BR VCSH OVC025
     FM311100 VRB05KT 2SM BR OVC015
     FM311600 27006KT 6SM -RA SCT015 OVC025=



000
FTUS43 KGLD 302320
TAFGLD
TAF
KGLD 302320Z 3100/3124 19014KT P6SM VCSH SCT025 OVC040
     FM310400 17012KT 6SM BR VCSH OVC025
     FM311100 VRB05KT 2SM BR OVC015
     FM311600 27006KT 6SM -RA SCT015 OVC025=



000
FTUS43 KGLD 302320
TAFMCK
TAF
KMCK 302320Z 3100/3124 18015KT P6SM VCSH SCT025 OVC045
     FM310900 VRB05KT 5SM BR VCSH OVC025
     FM311200 VRB05KT 1SM BR OVC009
     FM311600 10005KT 3SM -RA BR BKN015 OVC020
     FM312100 05008KT 5SM -RA BR OVC010=



000
FTUS43 KGLD 302320
TAFMCK
TAF
KMCK 302320Z 3100/3124 18015KT P6SM VCSH SCT025 OVC045
     FM310900 VRB05KT 5SM BR VCSH OVC025
     FM311200 VRB05KT 1SM BR OVC009
     FM311600 10005KT 3SM -RA BR BKN015 OVC020
     FM312100 05008KT 5SM -RA BR OVC010=



000
FTUS43 KGLD 301737
TAFMCK
TAF
KMCK 301737Z 3018/3118 18013KT P6SM OVC150
     FM302100 17013KT P6SM SCT050 OVC100
     FM310200 17008KT P6SM VCSH SCT025 OVC050
     FM310900 VRB05KT 5SM BR VCSH OVC025
     FM311200 VRB05KT 1SM BR OVC009=



000
FTUS43 KGLD 301737
TAFGLD
TAF
KGLD 301737Z 3018/3118 19018G26KT P6SM FEW050 OVC100
     FM302000 19015G23KT P6SM OVC050
     FM310100 19014KT P6SM VCSH SCT025 OVC040
     FM310400 17012KT 6SM BR VCSH OVC025
     FM311100 VRB05KT 2SM BR OVC015=



000
FTUS43 KGLD 301737
TAFMCK
TAF
KMCK 301737Z 3018/3118 18013KT P6SM OVC150
     FM302100 17013KT P6SM SCT050 OVC100
     FM310200 17008KT P6SM VCSH SCT025 OVC050
     FM310900 VRB05KT 5SM BR VCSH OVC025
     FM311200 VRB05KT 1SM BR OVC009=



000
FTUS43 KGLD 301135
TAFGLD
TAF
KGLD 301135Z 3012/3112 19010KT P6SM OVC200
     FM301400 19015G20KT P6SM OVC045
     FM302000 19020G30KT P6SM OVC070
     FM310100 18015KT P6SM OVC040
     FM310400 17012KT P6SM OVC025=



000
FTUS43 KGLD 301135
TAFMCK
TAF
KMCK 301135Z 3012/3112 17005KT P6SM BKN200
     FM301900 17015G20KT P6SM OVC070
     FM310100 17011KT P6SM SCT020 OVC050
     FM310900 VRB06KT P6SM OVC020=



000
FTUS43 KGLD 301135
TAFMCK
TAF
KMCK 301135Z 3012/3112 17005KT P6SM BKN200
     FM301900 17015G20KT P6SM OVC070
     FM310100 17011KT P6SM SCT020 OVC050
     FM310900 VRB06KT P6SM OVC020=



000
FTUS43 KGLD 300534
TAFMCK
TAF
KMCK 300534Z 3006/3106 VRB05KT P6SM BKN250
     FM301700 18014G24KT P6SM SCT100 BKN250
     FM310000 16011KT P6SM SCT015 BKN035=



000
FTUS43 KGLD 300534
TAFMCK
TAF
KMCK 300534Z 3006/3106 VRB05KT P6SM BKN250
     FM301700 18014G24KT P6SM SCT100 BKN250
     FM310000 16011KT P6SM SCT015 BKN035=



000
FTUS43 KGLD 300534
TAFGLD
TAF
KGLD 300534Z 3006/3106 18011KT P6SM BKN250
     FM301500 19019G29KT P6SM SCT080 BKN250
     FM302300 18015G23KT P6SM SCT015 BKN035
     FM310200 17012KT P6SM SCT009 BKN015=



000
FTUS43 KGLD 292326
TAFMCK
TAF
KMCK 292326Z 3000/3024 35009KT P6SM FEW250
     FM300100 VRB04KT P6SM FEW250
     FM301100 16010KT P6SM SCT250
     FM301700 18015G25KT P6SM SCT100 BKN200=



000
FTUS43 KGLD 292326
TAFMCK
TAF
KMCK 292326Z 3000/3024 35009KT P6SM FEW250
     FM300100 VRB04KT P6SM FEW250
     FM301100 16010KT P6SM SCT250
     FM301700 18015G25KT P6SM SCT100 BKN200=



000
FTUS43 KGLD 292326
TAFGLD
TAF
KGLD 292326Z 3000/3024 36009KT P6SM FEW250
     FM300100 VRB05KT P6SM FEW250
     FM300600 18011KT P6SM SCT250
     FM301500 19019G29KT P6SM SCT080 BKN200=



000
FTUS43 KGLD 291735
TAFGLD
TAF
KGLD 291735Z 2918/3018 36016KT P6SM SKC
     FM292200 02008KT P6SM SKC
     FM300000 VRB05KT P6SM SKC
     FM300500 18009KT P6SM SCT250
     FM301500 19015G25KT P6SM SCT100 BKN200=



000
FTUS43 KGLD 291735
TAFMCK
TAF
KMCK 291735Z 2918/3018 34014KT P6SM SKC
     FM292100 36009KT P6SM SKC
     FM300100 VRB04KT P6SM SKC
     FM300700 18006KT P6SM FEW250
     FM301600 18012KT P6SM SCT100 BKN200=



000
FTUS43 KGLD 291735
TAFMCK
TAF
KMCK 291735Z 2918/3018 34014KT P6SM SKC
     FM292100 36009KT P6SM SKC
     FM300100 VRB04KT P6SM SKC
     FM300700 18006KT P6SM FEW250
     FM301600 18012KT P6SM SCT100 BKN200=



000
FTUS43 KGLD 291120
TAFGLD
TAF
KGLD 291120Z 2912/3012 34012KT P6SM BKN100
     FM291600 35015G23KT P6SM SCT100 SCT280
     FM292100 35010KT P6SM SCT280
     FM292300 02007KT P6SM SCT280
     FM300200 VRB05KT P6SM SCT250
     FM300700 17007KT P6SM SCT230=



000
FTUS43 KGLD 291120
TAFMCK
TAF
KMCK 291120Z 2912/3012 33011KT P6SM SKC
      TEMPO 2914/2917 SCT015
     FM291700 34015G23KT P6SM SKC
     FM292100 34010KT P6SM SKC
     FM300200 VRB04KT P6SM SCT280
     FM300900 19006KT P6SM SCT230=



000
FTUS43 KGLD 291120
TAFMCK
TAF
KMCK 291120Z 2912/3012 33011KT P6SM SKC
      TEMPO 2914/2917 SCT015
     FM291700 34015G23KT P6SM SKC
     FM292100 34010KT P6SM SKC
     FM300200 VRB04KT P6SM SCT280
     FM300900 19006KT P6SM SCT230=



000
FTUS43 KGLD 290849 AAA
TAFMCK
TAF AMD
KMCK 290849Z 2909/3006 34014KT P6SM SCT015
     FM291600 34013G20KT P6SM SCT015
     FM292000 35008KT P6SM SKC
     FM292300 VRB03KT P6SM BKN250=



000
FTUS43 KGLD 290849 AAA
TAFMCK
TAF AMD
KMCK 290849Z 2909/3006 34014KT P6SM SCT015
     FM291600 34013G20KT P6SM SCT015
     FM292000 35008KT P6SM SKC
     FM292300 VRB03KT P6SM BKN250=



000
FTUS43 KGLD 290525
TAFMCK
TAF
KMCK 290525Z 2906/3006 33015KT P6SM FEW015 SCT100
     FM290700 34014KT P6SM SCT008 BKN015
     FM291600 34013G20KT P6SM SCT015
     FM292000 35008KT P6SM SKC
     FM292300 VRB03KT P6SM BKN250=



000
FTUS43 KGLD 290525
TAFGLD
TAF
KGLD 290525Z 2906/3006 33012KT P6SM SCT100
     FM291400 35014G22KT P6SM FEW200
     FM292000 35008KT P6SM FEW200
     FM292300 VRB04KT P6SM BKN250=



000
FTUS43 KGLD 290525
TAFMCK
TAF
KMCK 290525Z 2906/3006 33015KT P6SM FEW015 SCT100
     FM290700 34014KT P6SM SCT008 BKN015
     FM291600 34013G20KT P6SM SCT015
     FM292000 35008KT P6SM SKC
     FM292300 VRB03KT P6SM BKN250=



000
FTUS43 KGLD 282320
TAFMCK
TAF
KMCK 282320Z 2900/2924 31025G35KT P6SM FEW250
     FM290100 33017G21KT P6SM FEW250
     FM291200 33014KT P6SM BKN250
     FM292100 35008KT P6SM SCT250=



000
FTUS43 KGLD 282320
TAFGLD
TAF
KGLD 282320Z 2900/2924 33025G36KT P6SM SKC
     FM290100 33015G25KT P6SM FEW250
     FM290600 34015KT P6SM FEW025 BKN250
     FM292000 35008KT P6SM SCT250=



000
FTUS43 KGLD 282320
TAFMCK
TAF
KMCK 282320Z 2900/2924 31025G35KT P6SM FEW250
     FM290100 33017G21KT P6SM FEW250
     FM291200 33014KT P6SM BKN250
     FM292100 35008KT P6SM SCT250=



000
FTUS43 KGLD 281720
TAFGLD
TAF
KGLD 281720Z 2818/2918 33015G28KT P6SM SCT250
     FM281900 33025G36KT P6SM SKC
     FM290100 33015G25KT P6SM SKC
     FM290600 34015KT P6SM BKN250=



000
FTUS43 KGLD 281720
TAFMCK
TAF
KMCK 281720Z 2818/2918 28015G23KT P6SM BKN250
     FM281900 30020G32KT P6SM SKC
     FM290100 33013G20KT P6SM FEW250
     FM290600 33014KT P6SM BKN250=



000
FTUS43 KGLD 281720
TAFMCK
TAF
KMCK 281720Z 2818/2918 28015G23KT P6SM BKN250
     FM281900 30020G32KT P6SM SKC
     FM290100 33013G20KT P6SM FEW250
     FM290600 33014KT P6SM BKN250=



    US Dept of Commerce
    National Oceanic and Atmospheric Administration
    National Weather Service
    1325 East West Highway
    Silver Spring, MD 20910
    Page Author: NWS Internet Services Team
Disclaimer
Information Quality
Credits
Glossary
Privacy Policy
Freedom of Information Act (FOIA)
About Us
Career Opportunities